Time;durP1;ratioP1;P1;durP2;ratioP2;P2;SDS_P1;SDS_P2;PMS_P1;PMS_P2;Temp;Humidity;BMP_temperature;BMP_pressure;BME280_temperature;BME280_humidity;BME280_pressure;Samples;Min_cycle;Max_cycle;Signal;HPM_P1;HPM_P2
2022/12/13 00:00:40;;;;;;;3.70;1.20;;;-0.90;32.10;;;;;;5031449;28;20224;-70
2022/12/13 00:03:07;;;;;;;4.77;2.03;;;-1.20;32.10;;;;;;5032399;28;20208;-69
2022/12/13 00:05:33;;;;;;;4.65;1.95;;;-1.20;32.50;;;;;;5032489;28;20176;-70
2022/12/13 00:07:59;;;;;;;5.95;3.38;;;-1.20;32.10;;;;;;5032500;28;20877;-70
2022/12/13 00:10:25;;;;;;;3.92;1.30;;;-1.20;32.50;;;;;;5030866;28;20177;-70
2022/12/13 00:12:51;;;;;;;4.33;1.53;;;-1.10;32.80;;;;;;5029228;28;20207;-70
2022/12/13 00:15:16;;;;;;;8.20;3.47;;;-1.20;32.50;;;;;;5031380;28;20465;-70
2022/12/13 00:17:44;;;;;;;3.90;1.10;;;-1.40;32.50;;;;;;5031152;28;20276;-70
2022/12/13 00:20:10;;;;;;;11.70;2.85;;;-1.30;32.40;;;;;;5024500;28;20173;-70
2022/12/13 00:22:36;;;;;;;5.40;1.83;;;-1.30;32.60;;;;;;5031195;28;20210;-70
2022/12/13 00:25:02;;;;;;;5.13;2.03;;;-1.40;32.70;;;;;;5031527;28;20222;-70
2022/12/13 00:27:27;;;;;;;4.60;1.80;;;-1.30;32.60;;;;;;5031518;28;20206;-70
2022/12/13 00:29:53;;;;;;;4.20;1.40;;;-1.30;32.30;;;;;;5031165;28;20176;-70
2022/12/13 00:32:19;;;;;;;4.77;2.07;;;-1.40;33.00;;;;;;5029974;28;20215;-70
2022/12/13 00:34:44;;;;;;;4.40;1.63;;;-1.40;32.80;;;;;;5031493;28;20694;-69
2022/12/13 00:37:10;;;;;;;4.00;1.20;;;-1.50;32.60;;;;;;5030304;28;20188;-70
2022/12/13 00:39:36;;;;;;;5.27;2.27;;;-1.50;33.40;;;;;;5031602;28;20242;-70
2022/12/13 00:42:01;;;;;;;4.63;1.83;;;-1.30;32.40;;;;;;5029829;28;20299;-70
2022/12/13 00:44:27;;;;;;;4.70;1.80;;;-1.60;32.70;;;;;;5030264;28;20176;-70
2022/12/13 00:46:52;;;;;;;5.50;1.60;;;-1.60;33.10;;;;;;5031343;28;20205;-70
2022/12/13 00:49:18;;;;;;;4.10;1.30;;;-1.70;33.20;;;;;;5034998;28;20874;-70
2022/12/13 00:51:44;;;;;;;4.23;1.20;;;-1.60;33.00;;;;;;5040761;28;20224;-69
2022/12/13 00:54:10;;;;;;;5.17;1.83;;;-1.70;32.80;;;;;;5043192;28;20477;-70
2022/12/13 00:56:37;;;;;;;4.20;1.20;;;-1.80;33.10;;;;;;5051549;28;20189;-69
2022/12/13 00:59:03;;;;;;;6.68;1.83;;;-1.60;32.80;;;;;;5050289;28;20453;-70
2022/12/13 01:01:32;;;;;;;4.30;1.27;;;-1.80;32.90;;;;;;5031810;28;20683;-70
2022/12/13 01:04:00;;;;;;;7.90;2.80;;;-1.90;33.10;;;;;;5029729;28;20184;-69
2022/12/13 01:06:34;;;;;;;5.22;2.15;;;-1.80;33.10;;;;;;5030927;28;20185;-70
2022/12/13 01:08:59;;;;;;;4.30;1.20;;;-1.80;33.20;;;;;;5027904;28;20184;-69
2022/12/13 01:11:25;;;;;;;4.97;1.80;;;-1.70;33.20;;;;;;5031319;28;20184;-68
2022/12/13 01:13:51;;;;;;;4.97;1.80;;;-1.50;32.40;;;;;;5030934;28;20782;-70
2022/12/13 01:16:17;;;;;;;5.07;2.10;;;-1.40;31.70;;;;;;5029336;28;20256;-70
2022/12/13 01:18:43;;;;;;;5.32;1.85;;;-1.60;32.10;;;;;;5013145;28;20184;-70
2022/12/13 01:21:13;;;;;;;4.30;1.10;;;-1.60;32.40;;;;;;5029809;28;20602;-70
2022/12/13 01:23:40;;;;;;;4.40;1.30;;;-1.60;32.80;;;;;;5030787;28;20199;-69
2022/12/13 01:26:08;;;;;;;8.10;2.42;;;-1.50;32.60;;;;;;5029426;28;20188;-69
2022/12/13 01:28:34;;;;;;;7.68;2.80;;;-1.70;32.80;;;;;;5030430;28;20211;-69
2022/12/13 01:31:03;;;;;;;5.85;2.30;;;-1.60;32.70;;;;;;5030697;28;20177;-70
2022/12/13 01:33:29;;;;;;;5.32;2.33;;;-1.80;32.70;;;;;;5029190;28;20227;-70
2022/12/13 01:35:56;;;;;;;6.03;2.38;;;-1.50;31.90;;;;;;5028730;28;20180;-70
2022/12/13 01:38:21;;;;;;;7.70;2.38;;;-1.70;32.50;;;;;;5030340;28;20192;-70
2022/12/13 01:40:57;;;;;;;6.20;2.07;;;-1.90;32.70;;;;;;5030919;28;20200;-70
2022/12/13 01:43:48;;;;;;;6.15;2.20;;;-1.70;32.70;;;;;;5030313;28;20706;-70
2022/12/13 01:46:15;;;;;;;4.50;1.40;;;-1.80;32.90;;;;;;5030632;28;20212;-70
2022/12/13 01:49:08;;;;;;;7.72;2.75;;;-1.80;33.10;;;;;;5030889;28;20212;-70
2022/12/13 01:51:38;;;;;;;4.50;1.20;;;-1.70;32.40;;;;;;5029969;28;20215;-68
2022/12/13 01:54:07;;;;;;;4.30;1.10;;;-1.80;32.40;;;;;;5030253;28;20259;-70
2022/12/13 01:56:43;;;;;;;4.38;1.20;;;-2.00;33.00;;;;;;5030588;28;20208;-70
2022/12/13 01:59:11;;;;;;;4.40;1.20;;;-2.10;33.10;;;;;;5030231;28;20252;-70
2022/12/13 02:01:37;;;;;;;4.90;1.10;;;-1.90;32.80;;;;;;5030414;28;20267;-69
2022/12/13 02:04:03;;;;;;;4.30;1.10;;;-1.80;33.20;;;;;;5030743;28;20181;-70
2022/12/13 02:06:42;;;;;;;4.40;1.20;;;-2.10;32.60;;;;;;5030433;28;20561;-69
2022/12/13 02:09:09;;;;;;;4.40;1.17;;;-2.00;32.90;;;;;;5010593;28;20207;-70
2022/12/13 02:11:38;;;;;;;4.50;1.30;;;-2.10;32.80;;;;;;5028095;28;20196;-69
2022/12/13 02:14:04;;;;;;;4.40;1.20;;;-2.50;34.00;;;;;;5033817;28;20170;-70
2022/12/13 02:17:02;;;;;;;4.70;1.40;;;-2.30;33.80;;;;;;5034155;28;20659;-70
2022/12/13 02:19:46;;;;;;;4.35;1.10;;;-2.30;34.30;;;;;;5033003;28;20593;-69
2022/12/13 02:22:21;;;;;;;4.40;1.35;;;-2.20;33.20;;;;;;5031588;28;20192;-70
2022/12/13 02:25:11;;;;;;;9.18;2.67;;;-2.10;32.60;;;;;;5033641;28;20203;-70
2022/12/13 02:27:56;;;;;;;4.78;1.50;;;-2.10;32.50;;;;;;5028902;28;20568;-70
2022/12/13 02:30:29;;;;;;;8.68;4.22;;;-2.10;32.60;;;;;;5023421;28;20184;-70
2022/12/13 02:33:33;;;;;;;4.70;1.45;;;-2.20;33.40;;;;;;5032224;28;20258;-69
2022/12/13 02:36:06;;;;;;;6.35;2.33;;;-2.20;32.80;;;;;;5033362;28;20190;-70
2022/12/13 02:38:53;;;;;;;4.60;1.30;;;-2.40;32.70;;;;;;5033532;28;20181;-70
2022/12/13 02:41:26;;;;;;;4.50;1.20;;;-2.20;32.30;;;;;;5031788;28;20239;-70
2022/12/13 02:44:01;;;;;;;8.88;2.35;;;-2.40;33.40;;;;;;5033105;28;20176;-70
2022/12/13 02:46:29;;;;;;;7.60;2.55;;;-2.40;33.30;;;;;;5033352;28;20214;-70
2022/12/13 02:48:57;;;;;;;4.50;1.20;;;-2.40;33.50;;;;;;5033070;28;20679;-70
2022/12/13 02:51:25;;;;;;;4.85;1.40;;;-2.40;33.20;;;;;;5032128;28;20193;-71
2022/12/13 02:53:51;;;;;;;7.93;3.55;;;-2.30;33.50;;;;;;5032539;28;20243;-70
2022/12/13 02:56:16;;;;;;;5.37;1.90;;;-2.10;32.80;;;;;;5027050;28;20185;-70
2022/12/13 02:58:47;;;;;;;4.60;1.40;;;-2.10;32.80;;;;;;5032307;28;20183;-70
2022/12/13 03:01:32;;;;;;;14.35;5.10;;;-2.10;32.50;;;;;;5032997;28;20219;-70
2022/12/13 03:04:35;;;;;;;4.53;1.20;;;-2.00;31.70;;;;;;5028423;28;20189;-70
2022/12/13 03:07:35;;;;;;;5.03;1.65;;;-2.10;32.00;;;;;;5001006;28;20258;-70
2022/12/13 03:10:07;;;;;;;5.95;2.35;;;-2.30;32.20;;;;;;5026375;28;20553;-70
2022/12/13 03:15:56;;;;;;;5.10;1.80;;;-2.40;32.20;;;;;;5031409;28;20207;-70
2022/12/13 03:18:25;;;;;;;4.63;1.20;;;-2.60;33.00;;;;;;5030793;28;20172;-70
2022/12/13 03:21:04;;;;;;;6.45;2.13;;;-2.50;32.80;;;;;;5030150;28;20188;-68
2022/12/13 03:23:30;;;;;;;4.60;1.20;;;-2.50;32.20;;;;;;5030830;28;20206;-69
2022/12/13 03:26:01;;;;;;;5.70;1.95;;;-2.40;32.10;;;;;;5031547;28;20193;-70
2022/12/13 03:28:27;;;;;;;7.95;3.22;;;-2.40;32.30;;;;;;5032461;28;20671;-70
2022/12/13 03:30:53;;;;;;;4.60;1.30;;;-2.40;31.80;;;;;;5029868;28;20222;-68
2022/12/13 03:33:18;;;;;;;4.60;1.20;;;-2.40;31.70;;;;;;5031334;28;20294;-70
2022/12/13 03:35:44;;;;;;;6.20;2.27;;;-2.70;32.40;;;;;;5030503;28;20177;-70
2022/12/13 03:38:13;;;;;;;4.60;1.30;;;-2.60;32.30;;;;;;5030265;28;20246;-70
2022/12/13 03:40:39;;;;;;;5.40;1.83;;;-2.80;32.40;;;;;;5027334;28;20180;-69
2022/12/13 03:43:05;;;;;;;4.70;1.30;;;-2.70;32.40;;;;;;5029917;28;20580;-69
2022/12/13 03:45:30;;;;;;;4.57;1.17;;;-2.60;32.60;;;;;;5030406;28;20192;-70
2022/12/13 03:47:56;;;;;;;4.57;1.20;;;-2.50;31.90;;;;;;5026562;28;20209;-70
2022/12/13 03:50:21;;;;;;;5.10;1.70;;;-2.50;31.90;;;;;;5029741;28;20177;-70
2022/12/13 03:52:50;;;;;;;7.53;2.10;;;-2.80;32.50;;;;;;5030045;28;20741;-69
2022/12/13 03:55:15;;;;;;;4.63;1.20;;;-2.70;32.10;;;;;;5030957;28;20172;-69
2022/12/13 03:57:41;;;;;;;4.60;1.23;;;-2.70;32.40;;;;;;5030584;28;20192;-70
2022/12/13 04:00:08;;;;;;;4.60;1.17;;;-2.60;32.40;;;;;;5031105;28;20184;-70
2022/12/13 04:02:33;;;;;;;8.40;2.15;;;-2.70;32.00;;;;;;5029621;28;20294;-69
2022/12/13 04:04:59;;;;;;;4.57;1.13;;;-2.70;32.50;;;;;;5030304;28;20338;-69
2022/12/13 04:07:24;;;;;;;4.67;1.30;;;-2.80;32.20;;;;;;5013021;28;20682;-69
2022/12/13 04:09:50;;;;;;;5.93;2.20;;;-2.80;32.10;;;;;;5030928;28;20266;-70
2022/12/13 04:15:00;;;;;;;4.65;1.23;;;-2.70;31.30;;;;;;5028594;28;20180;-69
2022/12/13 04:17:26;;;;;;;4.60;1.20;;;-2.90;31.60;;;;;;5031893;28;20177;-69
2022/12/13 04:19:51;;;;;;;4.60;1.20;;;-3.00;32.00;;;;;;5031897;28;20196;-70
2022/12/13 04:22:17;;;;;;;4.63;1.10;;;-3.00;32.40;;;;;;5031671;28;20201;-70
2022/12/13 04:24:42;;;;;;;6.20;3.00;;;-3.00;31.90;;;;;;5030776;28;20181;-70
2022/12/13 04:27:08;;;;;;;4.70;1.30;;;-3.00;31.70;;;;;;5031424;28;20598;-69
2022/12/13 04:29:34;;;;;;;6.70;2.13;;;-3.10;32.00;;;;;;5031420;28;20299;-70
2022/12/13 04:31:59;;;;;;;4.70;1.20;;;-3.10;32.60;;;;;;5031272;28;20565;-69
2022/12/13 04:34:25;;;;;;;5.30;1.53;;;-2.80;31.90;;;;;;5030780;28;20173;-70
2022/12/13 04:36:50;;;;;;;4.80;1.30;;;-2.80;31.40;;;;;;5031257;28;20230;-69
2022/12/13 04:39:16;;;;;;;5.20;1.70;;;-2.90;31.80;;;;;;5031337;28;20190;-70
2022/12/13 04:41:41;;;;;;;6.07;1.97;;;-2.90;31.90;;;;;;5031419;28;20201;-70
2022/12/13 04:44:09;;;;;;;4.70;1.20;;;-2.80;32.10;;;;;;5031071;28;20188;-70
2022/12/13 04:46:34;;;;;;;4.80;1.20;;;-2.80;31.50;;;;;;5030652;28;20586;-70
2022/12/13 04:49:00;;;;;;;4.70;1.20;;;-2.90;31.70;;;;;;5031448;28;20204;-70
2022/12/13 04:51:26;;;;;;;6.60;2.23;;;-2.90;31.80;;;;;;5031594;28;20212;-70
2022/12/13 04:53:52;;;;;;;5.65;1.83;;;-3.10;32.50;;;;;;5029877;28;20230;-69
2022/12/13 04:56:18;;;;;;;6.13;2.17;;;-3.10;32.20;;;;;;5031172;28;20651;-70
2022/12/13 04:58:44;;;;;;;6.05;2.15;;;-3.20;32.10;;;;;;5031036;28;20184;-70
2022/12/13 05:01:10;;;;;;;4.67;1.10;;;-3.20;32.50;;;;;;5031253;28;20185;-70
2022/12/13 05:03:37;;;;;;;4.68;1.20;;;-2.90;32.00;;;;;;5031092;28;20478;-70
2022/12/13 05:06:08;;;;;;;4.65;1.10;;;-2.80;31.80;;;;;;5031466;28;20219;-69
2022/12/13 05:08:34;;;;;;;4.70;1.20;;;-2.80;31.20;;;;;;5029292;28;20196;-70
2022/12/13 05:11:00;;;;;;;5.00;1.50;;;-3.00;31.70;;;;;;5030627;28;20173;-70
2022/12/13 05:13:26;;;;;;;5.30;1.90;;;-3.00;32.00;;;;;;5030778;28;20214;-70
2022/12/13 05:16:00;;;;;;;5.50;2.03;;;-3.10;31.80;;;;;;5045797;28;20442;-69
2022/12/13 05:18:27;;;;;;;5.10;1.50;;;-3.20;31.80;;;;;;5049956;28;20434;-71
2022/12/13 05:20:53;;;;;;;4.82;1.40;;;-3.10;32.10;;;;;;5055061;28;20191;-77
2022/12/13 05:23:21;;;;;;;4.70;1.10;;;-3.30;32.40;;;;;;5056256;28;20204;-78
2022/12/13 05:25:46;;;;;;;4.80;1.20;;;-3.20;32.50;;;;;;5055554;28;20187;-78
2022/12/13 05:28:12;;;;;;;4.90;1.37;;;-3.30;32.30;;;;;;5056892;28;20223;-78
2022/12/13 05:30:42;;;;;;;4.80;1.30;;;-3.60;33.10;;;;;;5033536;28;20184;-72
2022/12/13 05:33:08;;;;;;;4.80;1.20;;;-3.40;33.40;;;;;;5027790;28;20224;-72
2022/12/13 05:35:34;;;;;;;5.10;1.60;;;-3.30;33.10;;;;;;5029918;28;20172;-72
2022/12/13 05:38:00;;;;;;;4.90;1.30;;;-3.10;32.30;;;;;;5025606;28;20207;-72
2022/12/13 05:40:28;;;;;;;8.50;2.75;;;-3.00;32.00;;;;;;5029435;28;20177;-72
2022/12/13 05:42:54;;;;;;;4.65;1.10;;;-3.10;32.00;;;;;;5029091;28;20223;-72
2022/12/13 05:45:21;;;;;;;4.80;1.20;;;-3.00;31.70;;;;;;5032954;28;20180;-70
2022/12/13 05:47:46;;;;;;;9.30;1.98;;;-3.10;31.80;;;;;;5029234;28;20209;-71
2022/12/13 05:50:14;;;;;;;4.90;1.40;;;-3.00;31.40;;;;;;5029070;28;20246;-70
2022/12/13 05:52:40;;;;;;;4.78;1.23;;;-3.00;31.50;;;;;;5030999;28;20546;-71
2022/12/13 05:55:06;;;;;;;6.07;1.60;;;-3.10;31.40;;;;;;5030538;28;20196;-69
2022/12/13 05:57:32;;;;;;;5.07;1.37;;;-3.10;31.80;;;;;;5033770;28;20181;-71
2022/12/13 05:59:58;;;;;;;5.20;1.83;;;-3.10;31.50;;;;;;5033945;28;20438;-71
2022/12/13 06:02:23;;;;;;;4.87;1.20;;;-3.00;31.90;;;;;;5031183;28;20576;-71
2022/12/13 06:04:49;;;;;;;5.13;1.43;;;-3.20;31.80;;;;;;5033506;28;20220;-71
2022/12/13 06:07:15;;;;;;;5.23;1.73;;;-3.10;31.10;;;;;;5032932;28;20281;-69
2022/12/13 06:09:41;;;;;;;5.40;1.83;;;-3.20;31.70;;;;;;5049759;28;20208;-71
2022/12/13 06:12:08;;;;;;;4.82;1.27;;;-3.30;31.90;;;;;;5034787;28;20454;-71
2022/12/13 06:14:34;;;;;;;5.10;1.60;;;-3.20;31.60;;;;;;5050579;28;20177;-71
2022/12/13 06:17:00;;;;;;;4.78;1.15;;;-3.20;31.70;;;;;;5053196;28;20185;-69
2022/12/13 06:19:26;;;;;;;5.00;1.50;;;-3.10;31.50;;;;;;5034835;28;20203;-70
2022/12/13 06:21:53;;;;;;;4.70;1.20;;;-3.00;31.80;;;;;;5028408;28;20212;-70
2022/12/13 06:24:21;;;;;;;5.43;1.80;;;-3.10;31.70;;;;;;5032394;28;20197;-69
2022/12/13 06:26:48;;;;;;;4.78;1.20;;;-3.20;31.90;;;;;;5032925;28;20264;-69
2022/12/13 06:29:14;;;;;;;7.05;2.08;;;-3.10;31.50;;;;;;5034123;28;20715;-69
2022/12/13 06:31:40;;;;;;;4.90;1.30;;;-3.10;31.60;;;;;;5025275;28;20228;-68
2022/12/13 06:34:06;;;;;;;4.90;1.20;;;-3.00;31.30;;;;;;5032747;28;20216;-69
2022/12/13 06:36:31;;;;;;;6.10;2.23;;;-3.00;31.10;;;;;;5030554;28;20242;-70
2022/12/13 06:39:02;;;;;;;7.00;1.73;;;-3.00;31.00;;;;;;5035927;28;20184;-71
2022/12/13 06:41:28;;;;;;;5.35;1.75;;;-3.10;31.50;;;;;;5029301;28;20196;-69
2022/12/13 06:43:53;;;;;;;4.90;1.30;;;-3.10;31.60;;;;;;5033930;28;20215;-71
2022/12/13 06:46:19;;;;;;;5.20;1.60;;;-3.10;31.40;;;;;;5033200;28;20770;-71
2022/12/13 06:48:45;;;;;;;4.90;1.40;;;-3.20;31.60;;;;;;5031316;28;20251;-71
2022/12/13 06:51:11;;;;;;;5.47;1.90;;;-3.10;31.90;;;;;;5032389;28;20436;-71
2022/12/13 06:53:39;;;;;;;5.77;2.23;;;-3.00;31.70;;;;;;5029945;28;20225;-70
2022/12/13 06:56:09;;;;;;;5.20;1.70;;;-3.10;31.90;;;;;;5027892;28;20450;-71
2022/12/13 06:58:35;;;;;;;4.80;1.20;;;-3.20;31.70;;;;;;5031809;28;20199;-71
2022/12/13 07:01:06;;;;;;;8.03;3.00;;;-3.20;31.60;;;;;;5031991;28;20184;-71
2022/12/13 07:03:32;;;;;;;5.20;1.52;;;-3.20;31.70;;;;;;5029273;28;20607;-70
2022/12/13 07:05:59;;;;;;;4.80;1.20;;;-3.20;31.90;;;;;;5032469;28;20183;-69
2022/12/13 07:08:25;;;;;;;4.90;1.20;;;-3.20;31.60;;;;;;5032588;28;20189;-71
2022/12/13 07:10:54;;;;;;;4.90;1.33;;;-3.20;31.10;;;;;;5032065;28;20185;-71
2022/12/13 07:13:19;;;;;;;5.10;1.50;;;-3.30;31.50;;;;;;5031199;28;20193;-70
2022/12/13 07:15:45;;;;;;;4.80;1.27;;;-3.30;31.30;;;;;;5031304;28;20530;-71
2022/12/13 07:18:11;;;;;;;4.95;1.35;;;-3.20;31.40;;;;;;5032471;28;20419;-69
2022/12/13 07:20:41;;;;;;;4.80;1.30;;;-3.10;31.50;;;;;;5030415;28;20581;-71
2022/12/13 07:23:07;;;;;;;14.20;2.45;;;-3.00;30.50;;;;;;5028195;28;20192;-71
2022/12/13 07:25:33;;;;;;;5.72;1.92;;;-2.90;30.80;;;;;;5028707;28;20265;-70
2022/12/13 07:28:01;;;;;;;4.77;1.20;;;-2.70;29.80;;;;;;5031522;28;20291;-70
2022/12/13 07:30:27;;;;;;;6.05;2.25;;;-2.80;30.30;;;;;;5030866;28;20473;-69
2022/12/13 07:32:52;;;;;;;5.00;1.40;;;-3.00;30.50;;;;;;5031057;28;20224;-71
2022/12/13 07:35:18;;;;;;;5.83;2.37;;;-2.90;30.50;;;;;;5031971;28;20255;-71
2022/12/13 07:37:43;;;;;;;4.70;1.10;;;-3.00;30.90;;;;;;5031374;28;20181;-71
2022/12/13 07:40:10;;;;;;;8.03;2.10;;;-3.10;30.90;;;;;;5030786;28;20215;-69
2022/12/13 07:42:35;;;;;;;6.18;2.53;;;-3.00;31.30;;;;;;5033345;28;20205;-70
2022/12/13 07:45:01;;;;;;;4.70;1.20;;;-3.00;31.50;;;;;;5029741;28;20607;-71
2022/12/13 07:47:30;;;;;;;4.90;1.30;;;-3.00;30.90;;;;;;5030146;28;20196;-71
2022/12/13 07:49:56;;;;;;;5.00;1.35;;;-2.90;30.70;;;;;;5031377;28;20173;-71
2022/12/13 07:52:22;;;;;;;4.75;1.20;;;-2.80;30.40;;;;;;5028969;28;20215;-70
2022/12/13 07:54:48;;;;;;;4.68;1.20;;;-2.90;30.70;;;;;;5031274;28;20548;-70
2022/12/13 07:57:13;;;;;;;4.90;1.30;;;-2.90;31.00;;;;;;5030241;28;20188;-70
2022/12/13 07:59:39;;;;;;;4.60;1.20;;;-2.90;31.20;;;;;;5030728;28;20186;-71
2022/12/13 08:02:07;;;;;;;5.47;1.90;;;-2.80;31.30;;;;;;5030180;28;20208;-71
2022/12/13 08:04:33;;;;;;;5.00;1.70;;;-2.80;31.80;;;;;;5031508;28;20208;-71
2022/12/13 08:06:58;;;;;;;4.93;1.60;;;-2.50;30.40;;;;;;5030974;28;20219;-70
2022/12/13 08:09:24;;;;;;;5.53;1.83;;;-2.50;31.10;;;;;;5027447;28;20208;-68
2022/12/13 08:11:49;;;;;;;4.20;1.20;;;-2.60;31.40;;;;;;5027250;28;20197;-69
2022/12/13 08:14:15;;;;;;;4.20;1.30;;;-2.60;31.60;;;;;;5029636;28;20177;-70
2022/12/13 08:16:40;;;;;;;10.00;3.30;;;-2.60;31.30;;;;;;5030700;28;20539;-70
2022/12/13 08:19:08;;;;;;;10.87;4.13;;;-2.60;31.20;;;;;;5030272;28;20214;-70
2022/12/13 08:21:36;;;;;;;4.20;1.40;;;-2.50;31.20;;;;;;5026510;28;20690;-70
2022/12/13 08:24:02;;;;;;;9.35;4.15;;;-2.50;31.50;;;;;;5028952;28;20184;-70
2022/12/13 08:26:27;;;;;;;4.30;1.50;;;-2.40;31.10;;;;;;5030864;28;20181;-70
2022/12/13 08:28:53;;;;;;;4.20;1.60;;;-2.30;31.30;;;;;;5028848;28;20227;-71
2022/12/13 08:31:18;;;;;;;4.37;1.37;;;-2.20;31.10;;;;;;5031107;28;20168;-68
2022/12/13 08:33:46;;;;;;;3.80;1.20;;;-2.20;30.80;;;;;;5030367;28;20195;-67
2022/12/13 08:36:15;;;;;;;4.43;1.95;;;-2.20;31.10;;;;;;5030983;28;20175;-69
2022/12/13 08:38:41;;;;;;;3.70;1.20;;;-2.10;31.80;;;;;;5030361;28;20609;-70
2022/12/13 08:41:08;;;;;;;4.53;1.90;;;-2.10;31.00;;;;;;5029142;28;20691;-70
2022/12/13 08:43:34;;;;;;;3.88;1.52;;;-2.10;31.20;;;;;;5030245;28;20651;-70
2022/12/13 08:46:00;;;;;;;3.50;1.20;;;-2.00;31.40;;;;;;5030920;28;20180;-70
2022/12/13 08:48:31;;;;;;;3.40;1.10;;;-1.90;31.00;;;;;;5031476;28;20196;-71
2022/12/13 08:51:02;;;;;;;4.63;2.17;;;-1.90;31.50;;;;;;5031053;28;20172;-70
2022/12/13 08:53:38;;;;;;;3.70;1.30;;;-2.00;31.80;;;;;;5026782;28;20266;-70
2022/12/13 08:56:07;;;;;;;3.50;1.10;;;-2.00;31.70;;;;;;5031609;28;20175;-70
2022/12/13 08:58:40;;;;;;;3.85;1.75;;;-1.90;31.70;;;;;;5032325;28;20180;-71
2022/12/13 09:01:07;;;;;;;4.05;1.85;;;-1.70;31.20;;;;;;5031655;28;20212;-70
2022/12/13 09:03:35;;;;;;;3.40;1.27;;;-1.70;31.30;;;;;;5028293;28;20195;-68
2022/12/13 09:06:11;;;;;;;4.03;1.58;;;-1.60;31.50;;;;;;5026498;28;20523;-70
2022/12/13 09:08:38;;;;;;;4.75;1.58;;;-1.50;31.20;;;;;;5028740;28;20188;-70
2022/12/13 09:11:04;;;;;;;3.40;1.25;;;-1.50;31.00;;;;;;5029589;28;20219;-70
2022/12/13 09:14:10;;;;;;;8.10;3.28;;;-1.60;31.50;;;;;;5029759;28;20203;-70
2022/12/13 09:16:35;;;;;;;3.35;1.25;;;-1.50;31.50;;;;;;5062881;22;20311;-72
2022/12/13 09:19:03;;;;;;;3.53;1.43;;;-1.30;32.30;;;;;;5032772;28;20267;-69
2022/12/13 09:21:29;;;;;;;4.00;1.77;;;-1.30;31.70;;;;;;5015019;28;20395;-70
2022/12/13 09:23:55;;;;;;;3.70;1.47;;;-1.00;31.60;;;;;;5015096;28;20264;-70
2022/12/13 09:26:20;;;;;;;3.40;1.40;;;-0.90;31.00;;;;;;5016684;28;20190;-70
2022/12/13 09:28:46;;;;;;;4.00;1.73;;;-1.00;31.20;;;;;;5032943;28;20246;-71
2022/12/13 09:31:18;;;;;;;4.30;2.10;;;-1.10;31.40;;;;;;5033703;28;20713;-73
2022/12/13 09:33:45;;;;;;;3.75;1.70;;;-1.00;31.60;;;;;;5033743;28;20161;-70
2022/12/13 09:36:16;;;;;;;3.70;1.55;;;-1.00;31.80;;;;;;5033770;28;20205;-70
2022/12/13 09:38:42;;;;;;;4.18;1.98;;;-0.90;31.40;;;;;;5033983;28;20246;-71
2022/12/13 09:41:18;;;;;;;3.63;1.53;;;-1.00;31.60;;;;;;5033801;28;20222;-70
2022/12/13 09:43:45;;;;;;;3.60;1.50;;;-0.90;31.50;;;;;;5034527;28;20543;-73
2022/12/13 09:46:31;;;;;;;4.72;1.92;;;-0.90;31.40;;;;;;5034485;28;20659;-70
2022/12/13 09:48:58;;;;;;;3.80;1.50;;;-1.00;31.50;;;;;;5034458;28;20185;-70
2022/12/13 09:51:24;;;;;;;3.80;1.65;;;-0.70;31.20;;;;;;5034234;28;20185;-69
2022/12/13 09:53:52;;;;;;;3.83;1.50;;;-0.80;31.40;;;;;;5034068;28;20192;-69
2022/12/13 09:56:22;;;;;;;3.63;1.23;;;-0.60;31.40;;;;;;5034237;28;20197;-69
2022/12/13 09:58:50;;;;;;;5.07;2.22;;;-0.50;31.20;;;;;;5034209;28;20519;-69
2022/12/13 10:01:16;;;;;;;5.22;1.75;;;-0.50;31.20;;;;;;5033985;28;20551;-69
2022/12/13 10:03:47;;;;;;;5.43;2.30;;;-0.20;30.80;;;;;;5034069;28;20173;-69
2022/12/13 10:06:15;;;;;;;4.00;1.50;;;-0.10;30.60;;;;;;5033964;28;20438;-70
2022/12/13 10:08:45;;;;;;;3.85;1.30;;;0.00;30.90;;;;;;5033827;28;20208;-69
2022/12/13 10:11:16;;;;;;;4.10;1.50;;;-0.10;29.80;;;;;;5033948;28;20569;-69
2022/12/13 10:14:02;;;;;;;3.90;1.30;;;-0.20;30.20;;;;;;5033724;28;20180;-69
2022/12/13 10:16:33;;;;;;;3.80;1.25;;;-0.30;31.40;;;;;;5015493;28;20224;-69
2022/12/13 10:19:21;;;;;;;3.60;1.20;;;-0.20;31.10;;;;;;5033895;28;20181;-70
2022/12/13 10:21:47;;;;;;;3.63;1.15;;;-0.20;31.10;;;;;;5032860;28;20188;-70
2022/12/13 10:24:26;;;;;;;4.90;2.03;;;0.20;30.40;;;;;;5033776;28;20411;-69
2022/12/13 10:26:52;;;;;;;4.53;1.95;;;0.40;29.90;;;;;;5033612;28;20317;-70
2022/12/13 10:29:19;;;;;;;4.57;1.88;;;0.40;30.50;;;;;;5033727;28;20619;-69
2022/12/13 10:31:47;;;;;;;4.72;1.90;;;0.20;30.40;;;;;;5033254;28;20173;-70
2022/12/13 10:34:27;;;;;;;6.63;3.38;;;0.00;31.60;;;;;;5033407;28;20749;-70
2022/12/13 10:36:53;;;;;;;3.55;1.42;;;0.50;31.10;;;;;;5033555;28;20169;-69
2022/12/13 10:39:38;;;;;;;3.40;1.20;;;0.80;31.00;;;;;;5033386;28;20211;-69
2022/12/13 10:42:11;;;;;;;4.97;1.85;;;0.60;30.50;;;;;;5033042;28;20180;-69
2022/12/13 10:44:37;;;;;;;5.15;1.77;;;-0.40;32.50;;;;;;5033206;28;20180;-69
2022/12/13 10:47:20;;;;;;;3.53;1.43;;;0.00;32.40;;;;;;5029531;28;20565;-72
2022/12/13 10:49:53;;;;;;;3.60;1.60;;;-0.30;33.00;;;;;;5029254;28;20199;-70
2022/12/13 10:52:31;;;;;;;3.20;1.30;;;0.20;32.30;;;;;;5027919;28;20181;-70
2022/12/13 10:55:01;;;;;;;3.35;1.52;;;0.50;32.10;;;;;;5029375;28;20296;-69
2022/12/13 10:57:27;;;;;;;3.20;1.50;;;1.10;30.90;;;;;;5028944;28;20260;-69
2022/12/13 10:59:53;;;;;;;2.80;1.20;;;1.40;30.20;;;;;;5031930;28;20267;-70
2022/12/13 11:02:36;;;;;;;2.80;1.30;;;1.50;29.90;;;;;;5032526;28;20504;-69
2022/12/13 11:05:27;;;;;;;3.00;1.50;;;1.80;30.50;;;;;;5030294;28;20203;-71
2022/12/13 11:07:56;;;;;;;2.60;1.20;;;1.80;29.80;;;;;;5031086;28;20743;-70
2022/12/13 11:10:26;;;;;;;4.25;1.80;;;1.70;29.90;;;;;;5031756;28;20176;-70
2022/12/13 11:13:02;;;;;;;2.60;1.45;;;1.60;30.00;;;;;;5031169;28;20185;-70
2022/12/13 11:15:30;;;;;;;2.40;1.20;;;1.60;30.00;;;;;;5032588;28;20204;-69
2022/12/13 11:18:02;;;;;;;2.70;1.50;;;1.20;31.30;;;;;;5032798;28;20211;-69
2022/12/13 11:20:36;;;;;;;2.40;1.20;;;1.60;30.80;;;;;;5032617;28;20176;-69
2022/12/13 11:23:18;;;;;;;2.78;1.60;;;1.40;30.20;;;;;;5032336;28;20546;-69
2022/12/13 11:25:44;;;;;;;2.95;1.60;;;1.10;31.00;;;;;;5032586;28;20610;-70
2022/12/13 11:28:35;;;;;;;2.40;1.30;;;1.60;30.90;;;;;;5032504;28;20203;-70
2022/12/13 11:31:27;;;;;;;3.33;1.65;;;1.70;30.00;;;;;;5032231;28;20161;-70
2022/12/13 11:34:31;;;;;;;2.40;1.35;;;2.20;30.00;;;;;;5032442;28;20235;-69
2022/12/13 11:36:57;;;;;;;2.35;1.38;;;2.90;28.40;;;;;;5032585;28;20651;-71
2022/12/13 11:39:33;;;;;;;2.87;1.77;;;2.90;28.00;;;;;;5032846;28;20180;-69
2022/12/13 11:42:22;;;;;;;2.90;1.67;;;3.00;28.30;;;;;;5032045;28;20271;-70
2022/12/13 11:45:14;;;;;;;2.10;1.15;;;3.40;28.30;;;;;;5032194;28;20206;-70
2022/12/13 11:47:54;;;;;;;2.17;1.40;;;3.70;27.40;;;;;;5032151;28;20181;-69
2022/12/13 11:50:27;;;;;;;2.20;1.30;;;3.50;27.90;;;;;;5032157;28;20157;-70
2022/12/13 11:52:57;;;;;;;5.72;2.30;;;3.90;27.10;;;;;;5031943;28;20303;-71
2022/12/13 11:55:39;;;;;;;2.80;1.77;;;4.00;27.00;;;;;;5031998;28;20350;-69
2022/12/13 11:58:26;;;;;;;3.13;2.03;;;3.90;27.00;;;;;;5031961;28;20280;-69
2022/12/13 12:01:00;;;;;;;2.00;1.20;;;3.70;27.80;;;;;;5031877;28;20184;-69
2022/12/13 12:03:38;;;;;;;2.63;1.73;;;3.70;26.90;;;;;;5031637;28;20620;-70
2022/12/13 12:06:21;;;;;;;2.00;1.20;;;3.70;27.40;;;;;;5031875;28;20291;-69
2022/12/13 12:08:55;;;;;;;1.88;1.17;;;3.30;27.40;;;;;;5031759;28;20262;-70
2022/12/13 12:11:29;;;;;;;2.53;1.55;;;3.70;28.50;;;;;;5031628;28;20160;-70
2022/12/13 12:14:09;;;;;;;1.85;1.20;;;4.50;27.00;;;;;;5031457;28;20591;-70
2022/12/13 12:16:57;;;;;;;2.50;1.77;;;4.80;26.80;;;;;;5031631;28;20208;-69
2022/12/13 12:19:27;;;;;;;1.80;1.10;;;4.10;26.70;;;;;;5031530;28;20545;-69
2022/12/13 12:21:58;;;;;;;1.90;1.33;;;4.10;26.80;;;;;;5031800;28;20209;-70
2022/12/13 12:24:48;;;;;;;2.00;1.30;;;4.70;26.60;;;;;;5031488;28;20415;-69
2022/12/13 12:27:19;;;;;;;7.18;2.47;;;4.80;26.30;;;;;;5031424;28;20207;-70
2022/12/13 12:30:12;;;;;;;1.80;1.20;;;5.10;26.20;;;;;;5031614;28;20167;-71
2022/12/13 12:33:05;;;;;;;1.90;1.30;;;5.40;25.10;;;;;;5031688;28;20421;-71
2022/12/13 12:35:49;;;;;;;1.90;1.30;;;5.40;25.10;;;;;;5031430;28;20184;-71
2022/12/13 12:38:43;;;;;;;2.67;1.45;;;5.60;24.80;;;;;;5031412;28;20200;-71
2022/12/13 12:41:23;;;;;;;1.90;1.35;;;5.40;24.20;;;;;;5013452;28;20641;-72
2022/12/13 12:44:25;;;;;;;29.73;2.20;;;5.20;25.50;;;;;;5031156;28;20654;-71
2022/12/13 12:47:28;;;;;;;1.80;1.20;;;5.10;25.70;;;;;;4999833;28;20261;-71
2022/12/13 12:49:59;;;;;;;2.00;1.30;;;4.70;25.00;;;;;;5031268;28;20184;-71
2022/12/13 12:52:53;;;;;;;2.42;1.30;;;5.00;25.30;;;;;;5030998;28;20652;-71
2022/12/13 12:55:44;;;;;;;1.98;1.42;;;4.10;25.80;;;;;;5031024;28;20192;-71
2022/12/13 12:58:21;;;;;;;1.90;1.25;;;4.30;25.50;;;;;;5031301;28;20222;-71
2022/12/13 13:01:13;;;;;;;1.90;1.38;;;4.60;25.00;;;;;;5031156;28;20236;-71
2022/12/13 13:03:41;;;;;;;2.75;1.75;;;4.90;25.30;;;;;;5030887;28;20620;-68
2022/12/13 13:06:13;;;;;;;1.80;1.20;;;5.10;24.30;;;;;;5031118;28;20200;-71
2022/12/13 13:08:51;;;;;;;1.90;1.35;;;5.20;25.00;;;;;;5031149;28;20192;-71
2022/12/13 13:11:16;;;;;;;1.83;1.30;;;5.30;24.90;;;;;;5031109;28;20168;-71